createdAt,value
2019-03-22T00:03:50.678Z,51.93
2019-03-22T00:08:55.465Z,35.37
2019-03-22T00:14:00.165Z,36.00
2019-03-22T00:19:04.894Z,41.40
2019-03-22T00:24:09.544Z,51.23
2019-03-22T00:29:14.186Z,42.33
2019-03-22T00:34:18.928Z,45.37
2019-03-22T00:39:24.537Z,42.47
2019-03-22T00:44:29.240Z,41.87
2019-03-22T00:49:33.977Z,42.43
2019-03-22T00:54:38.615Z,46.70
2019-03-22T00:59:43.360Z,37.77
2019-03-22T01:04:48.102Z,42.40
2019-03-22T01:09:52.843Z,55.07
2019-03-22T01:14:57.474Z,44.43
2019-03-22T01:20:02.132Z,40.70
2019-03-22T01:25:07.207Z,39.23
2019-03-22T01:30:18.474Z,42.63
2019-03-22T01:35:23.217Z,46.50
2019-03-22T01:40:28.940Z,40.70
2019-03-22T01:45:33.826Z,42.77
2019-03-22T01:50:38.568Z,42.50
2019-03-22T01:55:43.310Z,40.07
2019-03-22T02:00:47.962Z,46.60
2019-03-22T02:05:52.697Z,43.80
2019-03-22T02:10:57.334Z,42.93
2019-03-22T02:16:02.076Z,41.03
2019-03-22T02:21:06.636Z,44.03
2019-03-22T02:26:11.358Z,48.03
2019-03-22T02:31:15.998Z,43.33
2019-03-22T02:36:22.176Z,44.07
2019-03-22T02:41:26.928Z,40.77
2019-03-22T02:46:31.562Z,47.83
2019-03-22T02:51:36.301Z,59.23
2019-03-22T02:56:42.068Z,49.80
2019-03-22T03:01:46.717Z,48.97
2019-03-22T03:06:51.352Z,55.00
2019-03-22T03:11:57.018Z,69.20
2019-03-22T03:17:01.756Z,65.10
2019-03-22T03:22:06.390Z,67.40
2019-03-22T03:27:11.244Z,65.30
2019-03-22T03:32:15.992Z,61.43
2019-03-22T03:37:20.735Z,60.80
2019-03-22T03:42:25.469Z,63.30
2019-03-22T03:47:30.124Z,67.70
2019-03-22T03:52:34.752Z,67.50
2019-03-22T03:57:39.497Z,63.73
2019-03-22T04:02:44.340Z,69.77
2019-03-22T04:07:48.983Z,68.23
2019-03-22T04:12:53.721Z,73.67
2019-03-22T04:17:58.361Z,74.57
2019-03-22T04:23:04.656Z,77.40
2019-03-22T04:28:09.388Z,66.67
2019-03-22T04:33:15.139Z,75.77
2019-03-22T04:38:19.998Z,68.37
2019-03-22T04:43:26.075Z,79.20
2019-03-22T04:48:32.616Z,75.87
2019-03-22T04:53:40.383Z,71.70
2019-03-22T04:58:46.803Z,67.47
2019-03-22T05:03:51.287Z,67.73
2019-03-22T05:08:56.031Z,71.23
2019-03-22T05:14:00.669Z,71.97
2019-03-22T05:19:06.644Z,68.77
2019-03-22T05:24:11.385Z,87.20
2019-03-22T05:29:16.139Z,91.70
2019-03-22T05:34:20.764Z,92.10
2019-03-22T05:39:25.512Z,120.87
2019-03-22T05:44:30.171Z,242.30
2019-03-22T05:49:34.898Z,134.60
2019-03-22T05:54:39.741Z,138.93
2019-03-22T05:59:44.481Z,87.30
2019-03-22T06:04:49.230Z,65.03
2019-03-22T06:09:53.974Z,54.20
2019-03-22T06:14:58.711Z,63.07
2019-03-22T06:20:04.275Z,56.13
2019-03-22T06:25:09.131Z,62.37
2019-03-22T06:30:13.769Z,48.73
2019-03-22T06:35:18.500Z,58.93
2019-03-22T06:40:23.141Z,63.37
2019-03-22T06:45:27.781Z,72.90
2019-03-22T06:50:32.423Z,87.70
2019-03-22T06:55:37.164Z,78.13
2019-03-22T07:00:42.117Z,76.80
2019-03-22T07:05:47.885Z,63.70
2019-03-22T07:10:52.528Z,67.97
2019-03-22T07:15:57.263Z,59.40
2019-03-22T07:21:02.019Z,72.97
2019-03-22T07:26:06.854Z,64.30
2019-03-22T07:31:11.597Z,63.23
2019-03-22T07:36:16.443Z,66.27
2019-03-22T07:41:21.193Z,60.63
2019-03-22T07:46:25.844Z,55.53
2019-03-22T07:51:30.570Z,54.10
2019-03-22T07:56:35.317Z,55.43
2019-03-22T08:01:40.059Z,48.70
2019-03-22T08:06:44.903Z,46.57
2019-03-22T08:11:49.654Z,47.30
2019-03-22T08:16:54.283Z,44.20
2019-03-22T08:21:59.033Z,40.27
2019-03-22T08:27:03.797Z,36.40
2019-03-22T08:32:08.617Z,32.17
2019-03-22T08:37:13.370Z,33.80
2019-03-22T08:42:18.122Z,22.67
2019-03-22T08:47:33.257Z,22.00
2019-03-22T08:52:29.246Z,27.67
2019-03-22T08:57:33.882Z,26.77
2019-03-22T09:02:38.622Z,21.53
2019-03-22T09:07:43.409Z,18.93
2019-03-22T09:12:48.204Z,21.63
2019-03-22T09:17:53.063Z,31.67
2019-03-22T09:22:57.793Z,24.67
2019-03-22T09:28:02.546Z,32.27
2019-03-22T09:33:08.817Z,19.27
2019-03-22T09:38:13.735Z,24.80
2019-03-22T09:43:18.828Z,21.17
2019-03-22T09:48:23.791Z,97.60
2019-03-22T09:53:30.495Z,23.23
2019-03-22T09:58:36.650Z,18.83
2019-03-22T10:03:42.617Z,16.87
2019-03-22T10:08:48.364Z,17.17
2019-03-22T10:13:53.134Z,17.97
2019-03-22T10:18:57.880Z,13.90
2019-03-22T10:24:02.641Z,14.60
2019-03-22T10:29:08.368Z,13.23
2019-03-22T10:34:13.134Z,13.43
2019-03-22T10:39:19.396Z,14.07
2019-03-22T10:44:24.222Z,10.93
2019-03-22T10:49:29.084Z,34.93
2019-03-22T10:54:33.968Z,53.00
2019-03-22T10:59:38.875Z,25.57
2019-03-22T11:04:43.622Z,21.57
2019-03-22T11:09:48.364Z,16.37
2019-03-22T11:14:53.214Z,15.93
2019-03-22T11:19:58.055Z,21.00
2019-03-22T11:25:04.832Z,11.37
2019-03-22T11:30:11.813Z,18.60
2019-03-22T11:35:18.025Z,16.43
2019-03-22T11:40:22.769Z,13.60
2019-03-22T11:45:27.512Z,13.00
2019-03-22T11:50:32.250Z,17.63
2019-03-22T11:55:37.097Z,15.20
2019-03-22T12:00:41.770Z,17.17
2019-03-22T12:05:46.376Z,13.67
2019-03-22T12:10:51.125Z,15.07
2019-03-22T12:15:55.868Z,18.10
2019-03-22T12:21:00.512Z,13.40
2019-03-22T12:26:06.508Z,11.60
2019-03-22T12:31:11.444Z,29.40
2019-03-22T12:36:16.084Z,18.77
2019-03-22T12:41:20.918Z,12.57
2019-03-22T12:46:26.687Z,63.27
2019-03-22T12:51:31.432Z,13.03
2019-03-22T12:56:36.488Z,13.97
2019-03-22T13:01:41.231Z,14.20
2019-03-22T13:06:45.959Z,15.63
2019-03-22T13:11:52.700Z,17.20
2019-03-22T13:16:57.409Z,14.53
2019-03-22T13:22:02.062Z,12.13
2019-03-22T13:27:06.683Z,11.17
2019-03-22T13:32:11.427Z,13.37
2019-03-22T13:37:16.272Z,12.43
2019-03-22T13:42:21.021Z,14.67
2019-03-22T13:47:25.868Z,14.90
2019-03-22T13:52:30.426Z,22.20
2019-03-22T13:57:36.257Z,12.83
2019-03-22T14:02:42.694Z,15.20
2019-03-22T14:07:47.503Z,13.17
2019-03-22T14:12:52.350Z,13.30
2019-03-22T14:17:58.000Z,11.90
2019-03-22T14:23:03.671Z,11.70
2019-03-22T14:28:08.429Z,15.23
2019-03-22T14:33:13.868Z,10.43
2019-03-22T14:38:18.637Z,15.50
2019-03-22T14:43:24.483Z,11.40
2019-03-22T14:48:31.003Z,10.30
2019-03-22T14:53:35.726Z,9.33
2019-03-22T14:58:41.592Z,11.00
2019-03-22T15:03:46.341Z,14.30
2019-03-22T15:08:51.090Z,13.67
2019-03-22T15:14:01.388Z,10.13
2019-03-22T15:19:25.227Z,12.63
2019-03-22T15:24:41.745Z,11.23
2019-03-22T15:29:54.292Z,14.00
2019-03-22T15:35:12.759Z,12.47
2019-03-22T15:40:17.500Z,11.87
2019-03-22T15:45:22.474Z,15.27
2019-03-22T15:50:27.099Z,22.83
2019-03-22T15:55:33.400Z,27.10
2019-03-22T16:00:38.425Z,13.97
2019-03-22T16:05:43.795Z,12.57
2019-03-22T16:10:49.773Z,16.40
2019-03-22T16:15:56.363Z,17.47
2019-03-22T16:21:00.978Z,14.57
2019-03-22T16:26:05.929Z,18.90
2019-03-22T16:31:10.885Z,21.77
2019-03-22T16:36:15.665Z,18.60
2019-03-22T16:41:20.465Z,34.90
2019-03-22T16:46:25.718Z,39.23
2019-03-22T16:51:30.461Z,43.47
2019-03-22T16:56:35.235Z,48.60
2019-03-22T17:01:40.058Z,60.50
2019-03-22T17:06:44.639Z,59.70
2019-03-22T17:11:50.238Z,34.17
2019-03-22T17:16:55.208Z,40.63
2019-03-22T17:21:59.952Z,27.60
2019-03-22T17:27:04.591Z,23.27
2019-03-22T17:32:09.233Z,28.53
2019-03-22T17:37:13.975Z,23.97
2019-03-22T17:42:18.750Z,24.43
2019-03-22T17:47:23.370Z,18.80
2019-03-22T17:52:28.110Z,24.17
2019-03-22T17:57:32.760Z,26.60
2019-03-22T18:02:37.707Z,32.43
2019-03-22T18:07:44.073Z,40.37
2019-03-22T18:12:48.822Z,25.90
2019-03-22T18:17:54.220Z,22.97
2019-03-22T18:22:59.051Z,32.47
2019-03-22T18:28:03.698Z,35.63
2019-03-22T18:33:08.814Z,28.97
2019-03-22T18:38:13.865Z,33.70
2019-03-22T18:43:18.713Z,30.23
2019-03-22T18:48:23.451Z,36.20
2019-03-22T18:53:28.298Z,38.07
2019-03-22T18:58:34.066Z,30.13
2019-03-22T19:03:38.910Z,27.97
2019-03-22T19:08:43.656Z,73.67
2019-03-22T19:13:48.541Z,35.17
2019-03-22T19:18:53.352Z,29.27
2019-03-22T19:23:58.088Z,39.10
2019-03-22T19:29:02.834Z,29.63
2019-03-22T19:34:10.336Z,30.70
2019-03-22T19:39:14.977Z,34.97
2019-03-22T19:44:19.825Z,35.73
2019-03-22T19:49:24.564Z,40.27
2019-03-22T19:54:29.853Z,42.50
2019-03-22T19:59:34.762Z,45.07
2019-03-22T20:04:39.453Z,40.77
2019-03-22T20:09:44.209Z,51.50
2019-03-22T20:14:49.022Z,60.03
2019-03-22T20:19:54.894Z,65.80
2019-03-22T20:24:59.609Z,48.80
2019-03-22T20:30:06.444Z,40.40
2019-03-22T20:35:16.445Z,33.00
2019-03-22T20:40:19.574Z,28.97
2019-03-22T20:45:24.655Z,30.57
2019-03-22T20:50:35.695Z,31.60
2019-03-22T20:55:36.159Z,32.40
2019-03-22T21:00:40.905Z,39.43
2019-03-22T21:05:47.183Z,39.60
2019-03-22T21:10:51.936Z,32.43
2019-03-22T21:15:56.769Z,27.87
2019-03-22T21:21:01.520Z,29.87
2019-03-22T21:26:06.258Z,25.50
2019-03-22T21:31:10.999Z,26.37
2019-03-22T21:36:15.948Z,31.83
2019-03-22T21:41:20.690Z,26.90
2019-03-22T21:46:25.433Z,25.07
2019-03-22T21:51:30.279Z,28.20
2019-03-22T21:56:34.915Z,29.40
2019-03-22T22:01:39.547Z,29.07
2019-03-22T22:06:44.302Z,29.93
2019-03-22T22:11:49.249Z,30.13
2019-03-22T22:16:53.991Z,24.60
2019-03-22T22:21:58.605Z,25.23
2019-03-22T22:27:13.414Z,32.77
2019-03-22T22:32:11.904Z,37.67
2019-03-22T22:37:16.648Z,27.23
2019-03-22T22:42:21.388Z,26.27
2019-03-22T22:47:26.245Z,24.80
2019-03-22T22:52:32.514Z,22.33
2019-03-22T22:57:37.334Z,26.30
2019-03-22T23:02:42.102Z,21.27
2019-03-22T23:07:46.844Z,22.97
2019-03-22T23:12:52.207Z,23.83
2019-03-22T23:17:56.836Z,26.40
2019-03-22T23:23:01.473Z,24.87
2019-03-22T23:28:06.409Z,23.40
2019-03-22T23:33:11.164Z,29.30
2019-03-22T23:38:16.937Z,23.13
2019-03-22T23:43:21.675Z,24.07
2019-03-22T23:48:27.757Z,31.27
2019-03-22T23:53:32.392Z,32.73
2019-03-22T23:58:37.037Z,33.23
